sensor_id;sensor_type;location;lat;lon;timestamp;P1;durP1;ratioP1;P2;durP2;ratioP2
3271;SDS011;1648;50.022;8.424;2024-02-26T00:02:07;1.97;;;1.17;;
3271;SDS011;1648;50.022;8.424;2024-02-26T00:17:12;1.07;;;1.03;;
3271;SDS011;1648;50.022;8.424;2024-02-26T00:32:17;1.83;;;1.13;;
3271;SDS011;1648;50.022;8.424;2024-02-26T00:47:21;2.13;;;1.43;;
3271;SDS011;1648;50.022;8.424;2024-02-26T01:02:24;3.87;;;2.00;;
3271;SDS011;1648;50.022;8.424;2024-02-26T01:17:28;1.30;;;1.20;;
3271;SDS011;1648;50.022;8.424;2024-02-26T01:32:31;4.60;;;1.63;;
3271;SDS011;1648;50.022;8.424;2024-02-26T01:47:37;1.63;;;1.40;;
3271;SDS011;1648;50.022;8.424;2024-02-26T02:02:42;5.27;;;2.10;;
3271;SDS011;1648;50.022;8.424;2024-02-26T02:17:46;2.20;;;1.37;;
3271;SDS011;1648;50.022;8.424;2024-02-26T02:32:50;2.87;;;1.40;;
3271;SDS011;1648;50.022;8.424;2024-02-26T02:47:54;2.13;;;1.30;;
3271;SDS011;1648;50.022;8.424;2024-02-26T03:03:01;3.23;;;1.67;;
3271;SDS011;1648;50.022;8.424;2024-02-26T03:18:09;2.73;;;1.80;;
3271;SDS011;1648;50.022;8.424;2024-02-26T03:33:12;6.43;;;1.80;;
3271;SDS011;1648;50.022;8.424;2024-02-26T03:48:18;2.70;;;1.97;;
3271;SDS011;1648;50.022;8.424;2024-02-26T04:03:22;5.97;;;2.23;;
3271;SDS011;1648;50.022;8.424;2024-02-26T04:18:26;5.30;;;2.23;;
3271;SDS011;1648;50.022;8.424;2024-02-26T04:33:29;4.60;;;3.30;;
3271;SDS011;1648;50.022;8.424;2024-02-26T04:48:33;4.63;;;2.63;;
3271;SDS011;1648;50.022;8.424;2024-02-26T05:03:37;7.10;;;3.20;;
3271;SDS011;1648;50.022;8.424;2024-02-26T05:18:41;9.70;;;2.83;;
3271;SDS011;1648;50.022;8.424;2024-02-26T05:33:45;5.80;;;2.60;;
3271;SDS011;1648;50.022;8.424;2024-02-26T05:48:51;4.00;;;2.63;;
3271;SDS011;1648;50.022;8.424;2024-02-26T06:03:55;5.20;;;2.83;;
3271;SDS011;1648;50.022;8.424;2024-02-26T06:18:59;6.17;;;3.30;;
3271;SDS011;1648;50.022;8.424;2024-02-26T06:34:02;5.20;;;3.37;;
3271;SDS011;1648;50.022;8.424;2024-02-26T06:49:06;5.83;;;3.90;;
3271;SDS011;1648;50.022;8.424;2024-02-26T07:04:10;7.63;;;3.90;;
3271;SDS011;1648;50.022;8.424;2024-02-26T07:19:13;5.83;;;4.00;;
3271;SDS011;1648;50.022;8.424;2024-02-26T07:34:19;5.03;;;3.40;;
3271;SDS011;1648;50.022;8.424;2024-02-26T07:49:22;4.40;;;3.30;;
3271;SDS011;1648;50.022;8.424;2024-02-26T08:04:26;9.30;;;4.67;;
3271;SDS011;1648;50.022;8.424;2024-02-26T08:19:29;7.50;;;5.00;;
3271;SDS011;1648;50.022;8.424;2024-02-26T08:34:33;9.17;;;5.50;;
3271;SDS011;1648;50.022;8.424;2024-02-26T08:49:41;6.03;;;4.70;;
3271;SDS011;1648;50.022;8.424;2024-02-26T09:04:46;8.73;;;4.77;;
3271;SDS011;1648;50.022;8.424;2024-02-26T09:19:50;6.80;;;4.33;;
3271;SDS011;1648;50.022;8.424;2024-02-26T09:34:53;7.03;;;4.30;;
3271;SDS011;1648;50.022;8.424;2024-02-26T09:49:57;9.27;;;4.90;;
3271;SDS011;1648;50.022;8.424;2024-02-26T10:05:02;9.30;;;5.10;;
3271;SDS011;1648;50.022;8.424;2024-02-26T10:20:13;6.90;;;4.83;;
3271;SDS011;1648;50.022;8.424;2024-02-26T10:35:17;14.13;;;7.40;;
3271;SDS011;1648;50.022;8.424;2024-02-26T10:50:23;6.47;;;5.17;;
3271;SDS011;1648;50.022;8.424;2024-02-26T11:05:27;7.90;;;5.50;;
3271;SDS011;1648;50.022;8.424;2024-02-26T11:20:31;11.30;;;6.43;;
3271;SDS011;1648;50.022;8.424;2024-02-26T11:35:36;14.53;;;6.80;;
3271;SDS011;1648;50.022;8.424;2024-02-26T11:50:40;15.57;;;5.97;;
3271;SDS011;1648;50.022;8.424;2024-02-26T12:05:44;11.07;;;6.27;;
3271;SDS011;1648;50.022;8.424;2024-02-26T12:20:48;10.70;;;6.10;;
3271;SDS011;1648;50.022;8.424;2024-02-26T12:36:08;9.90;;;5.87;;
3271;SDS011;1648;50.022;8.424;2024-02-26T12:51:16;10.57;;;5.97;;
3271;SDS011;1648;50.022;8.424;2024-02-26T13:06:20;8.87;;;6.40;;
3271;SDS011;1648;50.022;8.424;2024-02-26T13:21:24;7.97;;;5.40;;
3271;SDS011;1648;50.022;8.424;2024-02-26T13:36:28;11.00;;;5.37;;
3271;SDS011;1648;50.022;8.424;2024-02-26T13:51:38;7.73;;;4.60;;
3271;SDS011;1648;50.022;8.424;2024-02-26T14:06:45;7.00;;;3.93;;
3271;SDS011;1648;50.022;8.424;2024-02-26T14:21:50;7.90;;;5.00;;
3271;SDS011;1648;50.022;8.424;2024-02-26T14:36:55;7.50;;;4.90;;
3271;SDS011;1648;50.022;8.424;2024-02-26T14:51:58;7.20;;;3.90;;
3271;SDS011;1648;50.022;8.424;2024-02-26T15:07:05;6.27;;;3.87;;
3271;SDS011;1648;50.022;8.424;2024-02-26T15:22:10;7.83;;;4.87;;
3271;SDS011;1648;50.022;8.424;2024-02-26T15:37:27;6.40;;;3.83;;
3271;SDS011;1648;50.022;8.424;2024-02-26T15:52:34;7.13;;;4.13;;
3271;SDS011;1648;50.022;8.424;2024-02-26T16:07:43;7.33;;;4.07;;
3271;SDS011;1648;50.022;8.424;2024-02-26T16:22:49;7.27;;;3.97;;
3271;SDS011;1648;50.022;8.424;2024-02-26T16:38:01;6.00;;;3.47;;
3271;SDS011;1648;50.022;8.424;2024-02-26T16:53:09;6.10;;;3.33;;
3271;SDS011;1648;50.022;8.424;2024-02-26T17:08:14;6.57;;;4.67;;
3271;SDS011;1648;50.022;8.424;2024-02-26T17:23:18;4.50;;;3.20;;
3271;SDS011;1648;50.022;8.424;2024-02-26T17:38:25;7.07;;;3.57;;
3271;SDS011;1648;50.022;8.424;2024-02-26T17:53:28;5.00;;;3.53;;
3271;SDS011;1648;50.022;8.424;2024-02-26T18:08:32;5.83;;;4.20;;
3271;SDS011;1648;50.022;8.424;2024-02-26T18:23:39;17.50;;;8.43;;
3271;SDS011;1648;50.022;8.424;2024-02-26T18:38:44;8.10;;;3.70;;
3271;SDS011;1648;50.022;8.424;2024-02-26T18:53:47;4.50;;;2.60;;
3271;SDS011;1648;50.022;8.424;2024-02-26T19:08:51;8.20;;;3.97;;
3271;SDS011;1648;50.022;8.424;2024-02-26T19:23:55;7.10;;;3.43;;
3271;SDS011;1648;50.022;8.424;2024-02-26T19:38:58;6.40;;;4.23;;
3271;SDS011;1648;50.022;8.424;2024-02-26T19:54:03;10.70;;;4.60;;
3271;SDS011;1648;50.022;8.424;2024-02-26T20:09:15;7.87;;;4.20;;
3271;SDS011;1648;50.022;8.424;2024-02-26T20:24:19;10.13;;;5.10;;
3271;SDS011;1648;50.022;8.424;2024-02-26T20:39:23;8.87;;;5.43;;
3271;SDS011;1648;50.022;8.424;2024-02-26T20:54:27;12.23;;;6.40;;
3271;SDS011;1648;50.022;8.424;2024-02-26T21:09:34;13.63;;;6.90;;
3271;SDS011;1648;50.022;8.424;2024-02-26T21:24:38;9.40;;;5.70;;
3271;SDS011;1648;50.022;8.424;2024-02-26T21:39:45;17.73;;;9.27;;
3271;SDS011;1648;50.022;8.424;2024-02-26T21:54:50;21.43;;;10.07;;
3271;SDS011;1648;50.022;8.424;2024-02-26T22:09:54;17.03;;;9.83;;
3271;SDS011;1648;50.022;8.424;2024-02-26T22:24:57;18.70;;;9.47;;
3271;SDS011;1648;50.022;8.424;2024-02-26T22:40:01;18.77;;;10.10;;
3271;SDS011;1648;50.022;8.424;2024-02-26T22:55:09;18.70;;;10.33;;
3271;SDS011;1648;50.022;8.424;2024-02-26T23:10:13;25.43;;;12.43;;
3271;SDS011;1648;50.022;8.424;2024-02-26T23:25:17;28.97;;;12.00;;
3271;SDS011;1648;50.022;8.424;2024-02-26T23:40:28;33.37;;;15.90;;
3271;SDS011;1648;50.022;8.424;2024-02-26T23:55:35;33.40;;;16.43;;
